createdAt,value
2023-03-19T00:02:17.653Z,8.80
2023-03-19T00:04:47.939Z,9.73
2023-03-19T00:07:17.096Z,9.30
2023-03-19T00:09:48.200Z,9.97
2023-03-19T00:12:16.699Z,9.10
2023-03-19T00:14:44.701Z,8.67
2023-03-19T00:17:12.790Z,8.53
2023-03-19T00:19:40.947Z,8.50
2023-03-19T00:22:10.370Z,8.30
2023-03-19T00:24:38.409Z,9.47
2023-03-19T00:27:06.681Z,8.40
2023-03-19T00:29:34.717Z,8.50
2023-03-19T00:32:03.385Z,8.87
2023-03-19T00:34:31.597Z,8.93
2023-03-19T00:36:59.583Z,9.27
2023-03-19T00:39:28.895Z,8.77
2023-03-19T00:41:56.902Z,8.87
2023-03-19T00:44:24.963Z,8.13
2023-03-19T00:46:52.976Z,8.83
2023-03-19T00:49:21.200Z,7.63
2023-03-19T00:51:49.202Z,8.00
2023-03-19T00:54:17.899Z,8.10
2023-03-19T00:56:47.329Z,8.40
2023-03-19T00:59:15.402Z,8.40
2023-03-19T01:01:43.522Z,8.13
2023-03-19T01:04:13.033Z,8.83
2023-03-19T01:06:41.221Z,8.93
2023-03-19T01:09:09.189Z,8.00
2023-03-19T01:11:37.516Z,7.80
2023-03-19T01:14:06.910Z,8.70
2023-03-19T01:16:35.705Z,7.57
2023-03-19T01:19:04.253Z,7.83
2023-03-19T01:21:32.281Z,8.97
2023-03-19T01:24:00.466Z,8.43
2023-03-19T01:26:28.702Z,8.10
2023-03-19T01:28:56.681Z,8.17
2023-03-19T01:31:26.065Z,8.43
2023-03-19T01:33:54.204Z,8.37
2023-03-19T01:36:22.428Z,7.77
2023-03-19T01:38:50.594Z,8.70
2023-03-19T01:41:18.729Z,8.43
2023-03-19T01:43:46.780Z,7.20
2023-03-19T01:46:22.903Z,8.50
2023-03-19T01:48:54.903Z,7.47
2023-03-19T01:51:27.087Z,7.97
2023-03-19T01:53:58.877Z,7.23
2023-03-19T01:56:30.623Z,7.17
2023-03-19T01:59:03.822Z,7.53
2023-03-19T02:01:34.840Z,7.40
2023-03-19T02:04:06.133Z,7.53
2023-03-19T02:06:35.044Z,7.57
2023-03-19T02:09:04.040Z,7.37
2023-03-19T02:11:32.772Z,7.17
2023-03-19T02:14:00.793Z,7.47
2023-03-19T02:16:28.943Z,8.80
2023-03-19T02:18:58.133Z,8.17
2023-03-19T02:21:27.492Z,8.63
2023-03-19T02:24:02.063Z,7.83
2023-03-19T02:26:32.355Z,7.60
2023-03-19T02:29:00.594Z,7.03
2023-03-19T02:31:31.100Z,7.33
2023-03-19T02:34:01.431Z,6.83
2023-03-19T02:36:33.423Z,6.77
2023-03-19T02:39:05.639Z,7.33
2023-03-19T02:41:38.445Z,7.53
2023-03-19T02:44:07.456Z,7.40
2023-03-19T02:46:35.484Z,7.63
2023-03-19T02:49:04.037Z,6.50
2023-03-19T02:51:32.122Z,6.73
2023-03-19T02:54:00.898Z,7.30
2023-03-19T02:56:28.939Z,7.20
2023-03-19T02:58:58.342Z,6.63
2023-03-19T03:01:26.377Z,7.00
2023-03-19T03:03:54.616Z,7.00
2023-03-19T03:06:22.585Z,7.10
2023-03-19T03:08:50.788Z,7.17
2023-03-19T03:11:18.755Z,7.20
2023-03-19T03:13:47.064Z,7.20
2023-03-19T03:16:17.463Z,6.97
2023-03-19T03:18:45.550Z,7.47
2023-03-19T03:21:13.848Z,6.50
2023-03-19T03:23:42.086Z,7.27
2023-03-19T03:26:10.117Z,7.20
2023-03-19T03:28:38.098Z,7.67
2023-03-19T03:31:06.278Z,7.23
2023-03-19T03:33:36.338Z,7.47
2023-03-19T03:36:04.647Z,6.70
2023-03-19T03:38:32.872Z,7.13
2023-03-19T03:41:00.890Z,7.23
2023-03-19T03:43:28.898Z,7.17
2023-03-19T03:45:57.060Z,6.80
2023-03-19T03:48:26.014Z,7.90
2023-03-19T03:50:55.683Z,7.20
2023-03-19T03:53:23.656Z,7.30
2023-03-19T03:55:51.669Z,6.90
2023-03-19T03:58:19.854Z,6.80
2023-03-19T04:00:48.447Z,7.60
2023-03-19T04:03:17.400Z,7.83
2023-03-19T04:05:45.578Z,7.47
2023-03-19T04:08:15.905Z,7.17
2023-03-19T04:10:44.791Z,7.47
2023-03-19T04:13:13.769Z,7.50
2023-03-19T04:15:43.565Z,7.13
2023-03-19T04:18:13.061Z,7.27
2023-03-19T04:20:41.233Z,7.00
2023-03-19T04:23:09.212Z,7.47
2023-03-19T04:25:41.157Z,7.33
2023-03-19T04:28:09.457Z,8.47
2023-03-19T04:30:37.963Z,7.53
2023-03-19T04:33:06.888Z,7.37
2023-03-19T04:35:35.748Z,8.37
2023-03-19T04:38:04.071Z,7.57
2023-03-19T04:40:32.265Z,7.53
2023-03-19T04:43:01.719Z,7.57
2023-03-19T04:45:29.688Z,7.90
2023-03-19T04:47:58.194Z,8.03
2023-03-19T04:50:26.206Z,8.07
2023-03-19T04:52:54.610Z,7.73
2023-03-19T04:55:23.594Z,7.97
2023-03-19T04:57:52.077Z,7.83
2023-03-19T05:00:22.316Z,8.00
2023-03-19T05:02:50.312Z,8.77
2023-03-19T05:05:18.549Z,8.00
2023-03-19T05:07:47.421Z,7.73
2023-03-19T05:10:15.462Z,7.77
2023-03-19T05:12:43.473Z,8.43
2023-03-19T05:15:12.577Z,8.87
2023-03-19T05:17:42.837Z,8.90
2023-03-19T05:20:12.759Z,8.43
2023-03-19T05:22:41.413Z,8.23
2023-03-19T05:25:09.764Z,8.57
2023-03-19T05:27:37.742Z,8.80
2023-03-19T05:30:07.090Z,9.07
2023-03-19T05:32:35.123Z,9.60
2023-03-19T05:35:05.568Z,8.67
2023-03-19T05:37:33.813Z,9.53
2023-03-19T05:40:01.844Z,8.70
2023-03-19T05:42:29.863Z,8.80
2023-03-19T05:44:58.121Z,8.73
2023-03-19T05:47:26.088Z,9.97
2023-03-19T05:49:54.039Z,9.40
2023-03-19T05:52:23.377Z,9.73
2023-03-19T05:54:51.397Z,7.80
2023-03-19T05:57:19.375Z,8.10
2023-03-19T05:59:47.758Z,8.43
2023-03-19T06:02:15.863Z,7.67
2023-03-19T06:04:45.320Z,7.57
2023-03-19T06:07:13.497Z,7.63
2023-03-19T06:09:43.121Z,7.30
2023-03-19T06:12:11.376Z,8.03
2023-03-19T06:14:39.292Z,6.33
2023-03-19T06:17:07.467Z,7.73
2023-03-19T06:19:35.426Z,7.27
2023-03-19T06:22:03.409Z,7.47
2023-03-19T06:24:31.481Z,7.57
2023-03-19T06:27:01.094Z,6.83
2023-03-19T06:29:29.237Z,6.93
2023-03-19T06:31:58.252Z,6.90
2023-03-19T06:34:26.525Z,6.87
2023-03-19T06:36:54.745Z,6.23
2023-03-19T06:39:22.864Z,7.10
2023-03-19T06:41:51.335Z,6.77
2023-03-19T06:44:20.876Z,6.77
2023-03-19T06:46:48.843Z,7.10
2023-03-19T06:49:17.037Z,6.67
2023-03-19T06:51:45.031Z,6.80
2023-03-19T06:54:13.019Z,7.40
2023-03-19T06:56:41.067Z,7.80
2023-03-19T06:59:12.373Z,7.57
2023-03-19T07:01:42.787Z,8.57
2023-03-19T07:04:10.939Z,8.13
2023-03-19T07:06:39.298Z,8.60
2023-03-19T07:09:07.282Z,8.37
2023-03-19T07:11:35.988Z,8.57
2023-03-19T07:14:04.454Z,9.53
2023-03-19T07:16:32.696Z,9.20
2023-03-19T07:19:02.095Z,9.57
2023-03-19T07:21:31.875Z,10.60
2023-03-19T07:23:59.868Z,10.13
2023-03-19T07:26:27.833Z,9.47
2023-03-19T07:28:55.829Z,9.43
2023-03-19T07:31:23.825Z,9.80
2023-03-19T07:33:51.913Z,9.50
2023-03-19T07:36:21.879Z,9.97
2023-03-19T07:38:49.907Z,9.83
2023-03-19T07:41:17.968Z,9.57
2023-03-19T07:43:46.021Z,9.73
2023-03-19T07:46:14.108Z,9.53
2023-03-19T07:48:42.059Z,9.63
2023-03-19T07:51:10.079Z,10.17
2023-03-19T07:53:39.471Z,9.83
2023-03-19T07:56:08.288Z,9.60
2023-03-19T07:58:36.294Z,9.90
2023-03-19T08:01:04.329Z,9.60
2023-03-19T08:03:32.328Z,10.30
2023-03-19T08:06:00.313Z,11.07
2023-03-19T08:08:28.233Z,9.70
2023-03-19T08:10:58.091Z,9.53
2023-03-19T08:13:26.317Z,10.23
2023-03-19T08:15:56.447Z,9.83
2023-03-19T08:18:24.627Z,8.87
2023-03-19T08:20:52.591Z,8.95
2023-03-19T08:23:20.853Z,9.43
2023-03-19T08:25:51.699Z,9.57
2023-03-19T08:28:21.794Z,8.90
2023-03-19T08:30:49.899Z,9.30
2023-03-19T08:33:18.046Z,9.23
2023-03-19T08:35:46.071Z,9.40
2023-03-19T08:38:14.108Z,8.90
2023-03-19T08:40:42.229Z,9.37
2023-03-19T08:43:10.213Z,9.50
2023-03-19T08:45:39.625Z,10.20
2023-03-19T08:48:07.697Z,9.25
2023-03-19T08:50:36.054Z,9.43
2023-03-19T08:53:04.309Z,10.07
2023-03-19T08:55:32.306Z,10.27
2023-03-19T08:58:00.560Z,9.60
2023-03-19T09:00:28.599Z,9.57
2023-03-19T09:02:57.897Z,9.63
2023-03-19T09:05:28.056Z,9.65
2023-03-19T09:07:58.690Z,9.05
2023-03-19T09:10:26.700Z,9.23
2023-03-19T09:12:54.712Z,9.55
2023-03-19T09:15:22.711Z,9.17
2023-03-19T09:17:50.913Z,9.10
2023-03-19T09:20:20.768Z,9.17
2023-03-19T09:22:48.758Z,9.13
2023-03-19T09:25:16.972Z,8.93
2023-03-19T09:27:44.947Z,12.27
2023-03-19T09:30:14.038Z,8.57
2023-03-19T09:32:42.242Z,9.23
2023-03-19T09:35:11.052Z,8.57
2023-03-19T09:37:40.435Z,8.93
2023-03-19T09:40:14.644Z,8.90
2023-03-19T09:42:54.165Z,8.87
2023-03-19T09:45:22.361Z,8.60
2023-03-19T09:47:55.270Z,8.53
2023-03-19T09:50:26.241Z,8.47
2023-03-19T09:53:02.669Z,8.90
2023-03-19T09:55:39.106Z,7.73
2023-03-19T09:58:14.861Z,8.57
2023-03-19T10:00:44.112Z,9.48
2023-03-19T10:03:27.676Z,8.32
2023-03-19T10:06:06.690Z,8.55
2023-03-19T10:09:00.999Z,8.35
2023-03-19T10:11:38.118Z,7.30
2023-03-19T10:14:22.246Z,8.40
2023-03-19T10:16:52.790Z,7.90
2023-03-19T10:19:25.845Z,8.15
2023-03-19T10:21:59.537Z,7.60
2023-03-19T10:24:34.306Z,7.85
2023-03-19T10:27:09.015Z,7.72
2023-03-19T10:29:37.446Z,7.50
2023-03-19T10:32:14.999Z,8.07
2023-03-19T10:34:44.278Z,7.72
2023-03-19T10:37:19.634Z,7.78
2023-03-19T10:39:50.679Z,7.95
2023-03-19T10:42:41.292Z,8.70
2023-03-19T10:45:22.145Z,7.50
2023-03-19T10:47:50.154Z,6.82
2023-03-19T10:50:20.087Z,7.57
2023-03-19T10:52:52.564Z,7.47
2023-03-19T10:55:26.707Z,6.95
2023-03-19T10:58:03.725Z,7.07
2023-03-19T11:00:33.747Z,7.45
2023-03-19T11:03:04.752Z,6.82
2023-03-19T11:05:34.954Z,7.43
2023-03-19T11:08:04.788Z,6.70
2023-03-19T11:10:36.694Z,7.38
2023-03-19T11:13:07.999Z,7.00
2023-03-19T11:15:38.082Z,7.35
2023-03-19T11:18:17.336Z,7.45
2023-03-19T11:20:51.822Z,7.00
2023-03-19T11:23:21.282Z,6.10
2023-03-19T11:25:53.091Z,6.65
2023-03-19T11:28:25.597Z,6.10
2023-03-19T11:31:00.194Z,5.40
2023-03-19T11:33:47.513Z,5.60
2023-03-19T11:36:22.385Z,5.45
2023-03-19T11:39:01.504Z,5.22
2023-03-19T11:41:45.513Z,5.75
2023-03-19T11:44:17.489Z,5.30
2023-03-19T11:46:54.365Z,5.45
2023-03-19T11:49:49.717Z,5.82
2023-03-19T11:52:24.452Z,6.93
2023-03-19T11:55:05.312Z,5.88
2023-03-19T11:57:56.567Z,7.13
2023-03-19T12:00:32.363Z,5.55
2023-03-19T12:03:25.306Z,5.78
2023-03-19T12:05:58.476Z,6.07
2023-03-19T12:08:34.762Z,6.20
2023-03-19T12:11:15.014Z,5.72
2023-03-19T12:13:57.001Z,5.90
2023-03-19T12:16:39.043Z,5.70
2023-03-19T12:19:32.083Z,6.53
2023-03-19T12:22:10.563Z,8.95
2023-03-19T12:24:58.962Z,8.82
2023-03-19T12:27:34.402Z,6.25
2023-03-19T12:30:14.037Z,5.95
2023-03-19T12:33:00.810Z,5.90
2023-03-19T12:35:35.363Z,5.93
2023-03-19T12:38:10.463Z,5.70
2023-03-19T12:44:30.951Z,5.78
2023-03-19T12:47:04.441Z,6.57
2023-03-19T12:49:38.522Z,5.90
2023-03-19T12:52:14.818Z,6.38
2023-03-19T12:54:46.352Z,6.05
2023-03-19T12:57:19.182Z,5.50
2023-03-19T12:59:54.238Z,6.05
2023-03-19T13:02:28.630Z,6.00
2023-03-19T13:04:58.798Z,5.63
2023-03-19T13:07:34.219Z,5.60
2023-03-19T13:10:07.395Z,6.30
2023-03-19T13:12:38.582Z,6.75
2023-03-19T13:15:11.675Z,6.05
2023-03-19T13:17:59.534Z,8.82
2023-03-19T13:20:39.065Z,6.90
2023-03-19T13:23:11.085Z,6.03
2023-03-19T13:25:43.027Z,6.55
2023-03-19T13:28:12.801Z,6.05
2023-03-19T13:30:42.444Z,5.82
2023-03-19T13:33:22.884Z,6.03
2023-03-19T13:35:51.743Z,6.47
2023-03-19T13:38:22.040Z,6.78
2023-03-19T13:40:52.020Z,6.80
2023-03-19T13:43:54.060Z,6.30
2023-03-19T13:46:40.095Z,7.00
2023-03-19T13:49:28.390Z,6.38
2023-03-19T13:52:00.035Z,8.50
2023-03-19T13:54:37.912Z,6.57
2023-03-19T13:57:22.593Z,6.22
2023-03-19T13:59:51.703Z,6.82
2023-03-19T14:02:48.758Z,6.28
2023-03-19T14:05:22.818Z,6.05
2023-03-19T14:07:56.403Z,5.82
2023-03-19T14:10:28.064Z,6.20
2023-03-19T14:13:06.346Z,6.57
2023-03-19T14:15:36.549Z,7.43
2023-03-19T14:18:07.446Z,5.80
2023-03-19T14:20:48.243Z,6.18
2023-03-19T14:23:25.156Z,7.68
2023-03-19T14:26:07.414Z,6.38
2023-03-19T14:28:54.897Z,6.50
2023-03-19T14:31:31.173Z,7.95
2023-03-19T14:34:21.057Z,7.97
2023-03-19T14:36:57.208Z,6.95
2023-03-19T14:39:27.524Z,5.80
2023-03-19T14:42:02.532Z,5.80
2023-03-19T14:45:21.174Z,6.93
2023-03-19T14:48:15.544Z,5.38
2023-03-19T14:51:02.304Z,5.85
2023-03-19T14:53:39.480Z,6.70
2023-03-19T14:56:15.742Z,6.60
2023-03-19T14:58:51.777Z,7.05
2023-03-19T15:01:20.826Z,6.53
2023-03-19T15:03:55.549Z,5.90
2023-03-19T15:06:24.696Z,5.80
2023-03-19T15:08:54.095Z,6.40
2023-03-19T15:11:43.065Z,5.47
2023-03-19T15:14:37.799Z,4.80
2023-03-19T15:17:13.445Z,4.80
2023-03-19T15:19:41.985Z,4.60
2023-03-19T15:22:14.790Z,5.07
2023-03-19T15:24:44.566Z,5.45
2023-03-19T15:27:20.646Z,5.22
2023-03-19T15:29:50.709Z,5.15
2023-03-19T15:35:27.760Z,5.50
2023-03-19T15:38:00.017Z,5.18
2023-03-19T15:40:32.350Z,5.15
2023-03-19T15:43:03.362Z,5.13
2023-03-19T15:45:34.731Z,4.85
2023-03-19T15:48:07.240Z,4.80
2023-03-19T15:50:38.216Z,5.10
2023-03-19T15:53:11.763Z,4.72
2023-03-19T15:55:41.472Z,5.60
2023-03-19T15:58:13.356Z,5.05
2023-03-19T16:00:42.593Z,5.30
2023-03-19T16:03:17.272Z,5.20
2023-03-19T16:05:45.832Z,6.10
2023-03-19T16:08:20.933Z,5.25
2023-03-19T16:10:50.424Z,5.30
2023-03-19T16:13:38.616Z,5.25
2023-03-19T16:16:15.743Z,5.88
2023-03-19T16:18:50.463Z,5.80
2023-03-19T16:21:20.782Z,5.70
2023-03-19T16:23:54.346Z,5.30
2023-03-19T16:26:27.262Z,5.88
2023-03-19T16:29:06.915Z,5.95
2023-03-19T16:31:43.838Z,5.63
2023-03-19T16:34:40.958Z,5.20
2023-03-19T16:37:27.644Z,6.15
2023-03-19T16:39:57.366Z,5.65
2023-03-19T16:42:41.148Z,5.68
2023-03-19T16:45:23.609Z,5.93
2023-03-19T16:47:52.984Z,6.45
2023-03-19T16:50:22.888Z,6.20
2023-03-19T16:52:51.084Z,6.13
2023-03-19T16:55:22.770Z,6.63
2023-03-19T16:57:57.780Z,7.15
2023-03-19T17:00:26.567Z,6.85
2023-03-19T17:02:55.835Z,6.93
2023-03-19T17:05:24.875Z,7.00
2023-03-19T17:07:55.404Z,6.47
2023-03-19T17:10:26.072Z,7.15
2023-03-19T17:12:57.476Z,7.38
2023-03-19T17:15:28.127Z,7.20
2023-03-19T17:17:57.238Z,7.13
2023-03-19T17:20:30.878Z,7.13
2023-03-19T17:22:58.968Z,6.80
2023-03-19T17:25:27.341Z,6.95
2023-03-19T17:27:56.687Z,7.40
2023-03-19T17:30:25.369Z,9.05
2023-03-19T17:32:55.974Z,7.72
2023-03-19T17:35:24.304Z,7.93
2023-03-19T17:37:52.629Z,8.02
2023-03-19T17:40:23.066Z,8.75
2023-03-19T17:42:52.031Z,8.10
2023-03-19T17:45:27.451Z,9.15
2023-03-19T17:47:57.815Z,8.15
2023-03-19T17:50:31.275Z,7.97
2023-03-19T17:52:59.911Z,8.20
2023-03-19T17:55:29.778Z,9.02
2023-03-19T17:57:58.173Z,8.25
2023-03-19T18:00:27.585Z,8.52
2023-03-19T18:02:56.797Z,9.68
2023-03-19T18:05:26.523Z,8.93
2023-03-19T18:07:56.592Z,10.13
2023-03-19T18:10:26.682Z,9.23
2023-03-19T18:12:54.882Z,8.85
2023-03-19T18:15:23.726Z,8.80
2023-03-19T18:17:56.492Z,8.82
2023-03-19T18:20:36.378Z,8.40
2023-03-19T18:23:04.960Z,13.00
2023-03-19T18:25:35.494Z,12.32
2023-03-19T18:28:04.524Z,10.30
2023-03-19T18:30:35.928Z,11.10
2023-03-19T18:33:07.712Z,10.55
2023-03-19T18:35:39.424Z,10.23
2023-03-19T18:38:15.569Z,10.75
2023-03-19T18:40:43.577Z,9.30
2023-03-19T18:43:14.155Z,11.18
2023-03-19T18:45:44.621Z,9.63
2023-03-19T18:48:21.801Z,9.60
2023-03-19T18:50:50.249Z,10.05
2023-03-19T18:53:18.828Z,8.85
2023-03-19T18:55:47.748Z,9.30
2023-03-19T18:58:20.404Z,9.73
2023-03-19T19:00:48.914Z,9.45
2023-03-19T19:03:20.814Z,10.70
2023-03-19T19:05:49.664Z,9.50
2023-03-19T19:08:19.768Z,11.95
2023-03-19T19:10:49.951Z,10.88
2023-03-19T19:13:21.095Z,9.85
2023-03-19T19:15:49.479Z,10.00
2023-03-19T19:18:20.829Z,9.30
2023-03-19T19:20:51.185Z,8.90
2023-03-19T19:23:19.964Z,8.55
2023-03-19T19:25:50.906Z,7.70
2023-03-19T19:28:22.671Z,8.32
2023-03-19T19:30:51.159Z,8.63
2023-03-19T19:33:23.267Z,8.18
2023-03-19T19:35:52.054Z,7.50
2023-03-19T19:38:20.357Z,7.93
2023-03-19T19:40:51.987Z,6.95
2023-03-19T19:43:21.917Z,5.80
2023-03-19T19:45:52.788Z,13.80
2023-03-19T19:48:25.708Z,6.40
2023-03-19T19:50:54.833Z,6.30
2023-03-19T19:53:25.199Z,5.25
2023-03-19T19:55:53.451Z,5.47
2023-03-19T19:58:25.032Z,4.95
2023-03-19T20:01:08.458Z,5.65
2023-03-19T20:03:38.071Z,5.78
2023-03-19T20:06:06.870Z,5.38
2023-03-19T20:08:35.110Z,4.68
2023-03-19T20:11:03.987Z,5.70
2023-03-19T20:13:34.596Z,4.90
2023-03-19T20:16:03.927Z,4.88
2023-03-19T20:18:35.728Z,4.40
2023-03-19T20:21:07.064Z,5.53
2023-03-19T20:23:35.238Z,4.13
2023-03-19T20:26:03.618Z,4.72
2023-03-19T20:28:35.473Z,4.22
2023-03-19T20:31:04.993Z,3.90
2023-03-19T20:33:34.524Z,4.03
2023-03-19T20:36:04.518Z,4.28
2023-03-19T20:38:32.662Z,4.00
2023-03-19T20:41:00.608Z,4.85
2023-03-19T20:43:30.820Z,4.38
2023-03-19T20:46:01.885Z,4.43
2023-03-19T20:48:30.917Z,3.97
2023-03-19T20:50:59.618Z,4.35
2023-03-19T20:53:29.113Z,4.05
2023-03-19T20:55:57.444Z,4.20
2023-03-19T20:58:29.078Z,4.50
2023-03-19T21:00:57.980Z,4.32
2023-03-19T21:03:28.459Z,3.97
2023-03-19T21:06:01.900Z,3.95
2023-03-19T21:08:34.869Z,3.67
2023-03-19T21:11:03.336Z,3.83
2023-03-19T21:13:32.033Z,3.85
2023-03-19T21:16:00.134Z,4.95
2023-03-19T21:18:28.225Z,3.95
2023-03-19T21:20:57.692Z,3.92
2023-03-19T21:23:31.423Z,3.78
2023-03-19T21:26:03.321Z,4.05
2023-03-19T21:28:35.531Z,4.20
2023-03-19T21:31:04.084Z,4.38
2023-03-19T21:33:33.724Z,4.63
2023-03-19T21:36:02.968Z,4.13
2023-03-19T21:38:33.077Z,4.10
2023-03-19T21:41:06.059Z,4.03
2023-03-19T21:43:36.356Z,3.97
2023-03-19T21:46:22.830Z,4.35
2023-03-19T21:48:52.345Z,4.35
2023-03-19T21:51:20.573Z,4.72
2023-03-19T21:53:48.961Z,4.90
2023-03-19T21:56:23.015Z,4.55
2023-03-19T21:58:52.422Z,4.65
2023-03-19T22:01:23.549Z,4.63
2023-03-19T22:03:52.258Z,4.13
2023-03-19T22:06:22.041Z,4.32
2023-03-19T22:08:51.154Z,4.80
2023-03-19T22:11:25.439Z,3.90
2023-03-19T22:13:53.727Z,4.28
2023-03-19T22:16:24.636Z,4.03
2023-03-19T22:18:53.396Z,4.15
2023-03-19T22:21:23.722Z,4.35
2023-03-19T22:23:52.820Z,4.10
2023-03-19T22:26:30.276Z,4.28
2023-03-19T22:29:01.517Z,3.65
2023-03-19T22:31:29.952Z,3.40
2023-03-19T22:33:58.153Z,4.63
2023-03-19T22:36:26.214Z,3.92
2023-03-19T22:38:54.246Z,3.42
2023-03-19T22:41:30.166Z,3.30
2023-03-19T22:43:59.777Z,4.30
2023-03-19T22:46:28.206Z,3.38
2023-03-19T22:48:56.678Z,2.83
2023-03-19T22:51:29.089Z,3.00
2023-03-19T22:53:57.090Z,3.28
2023-03-19T22:56:25.166Z,3.13
2023-03-19T22:58:54.764Z,3.10
2023-03-19T23:01:35.742Z,4.15
2023-03-19T23:04:19.858Z,3.80
2023-03-19T23:06:48.186Z,3.72
2023-03-19T23:09:18.168Z,2.88
2023-03-19T23:11:46.371Z,3.17
2023-03-19T23:14:28.333Z,3.17
2023-03-19T23:19:29.927Z,3.30
2023-03-19T23:21:58.903Z,3.70
2023-03-19T23:24:27.778Z,2.97
2023-03-19T23:26:57.798Z,2.50
2023-03-19T23:29:30.451Z,2.65
2023-03-19T23:31:58.896Z,3.22
2023-03-19T23:34:28.429Z,2.60
2023-03-19T23:36:57.877Z,2.78
2023-03-19T23:39:25.942Z,2.83
2023-03-19T23:41:57.697Z,2.70
2023-03-19T23:44:29.040Z,2.90
2023-03-19T23:47:02.333Z,2.78
2023-03-19T23:49:32.507Z,3.25
2023-03-19T23:52:01.836Z,3.15
2023-03-19T23:54:32.084Z,4.55
2023-03-19T23:57:04.165Z,2.65
2023-03-19T23:59:36.033Z,3.53
